Time;durP1;ratioP1;P1;durP2;ratioP2;P2;SDS_P1;SDS_P2;PMS_P1;PMS_P2;Temp;Humidity;BMP_temperature;BMP_pressure;BME280_temperature;BME280_humidity;BME280_pressure;Samples;Min_cycle;Max_cycle;Signal;HPM_P1;HPM_P2
2022/03/08 00:00:38;;;;;;;18.48;7.82;;;;;;;-148.23;100.00;61223.13;4982935;28;20061;-68
2022/03/08 00:03:05;;;;;;;17.35;8.05;;;;;;;-148.23;100.00;61223.13;4980752;28;20065;-68
2022/03/08 00:05:30;;;;;;;19.48;7.25;;;;;;;-148.23;100.00;61223.13;4980373;28;20245;-68
2022/03/08 00:07:57;;;;;;;12.88;7.18;;;;;;;-148.23;100.00;61223.13;4981761;28;20034;-68
2022/03/08 00:10:22;;;;;;;20.63;8.13;;;;;;;-148.23;100.00;61223.13;4977956;28;20536;-68
2022/03/08 00:12:48;;;;;;;17.30;7.80;;;;;;;-148.23;100.00;61223.13;4964379;28;20328;-68
2022/03/08 00:15:17;;;;;;;16.35;7.80;;;;;;;-148.23;100.00;61223.13;4979097;28;20068;-68
2022/03/08 00:17:42;;;;;;;13.85;7.55;;;;;;;-148.23;100.00;61223.13;4983131;28;20093;-68
2022/03/08 00:20:09;;;;;;;18.90;9.07;;;;;;;-148.23;100.00;61223.13;4979845;28;20041;-68
2022/03/08 00:22:37;;;;;;;19.75;7.85;;;;;;;-148.23;100.00;61223.13;4982568;28;20034;-68
2022/03/08 00:25:06;;;;;;;18.00;6.82;;;;;;;-148.23;100.00;61223.13;4980879;28;20030;-68
2022/03/08 00:27:32;;;;;;;15.18;6.78;;;;;;;-148.23;100.00;61223.13;4983688;28;20033;-68
2022/03/08 00:29:57;;;;;;;15.02;7.32;;;;;;;-148.23;100.00;61223.13;4977609;28;20026;-68
2022/03/08 00:32:23;;;;;;;16.08;7.88;;;;;;;-148.23;100.00;61223.13;4976624;28;20027;-68
2022/03/08 00:34:48;;;;;;;16.45;7.50;;;;;;;-148.23;100.00;61223.13;4980912;28;20379;-68
2022/03/08 00:37:14;;;;;;;15.00;7.65;;;;;;;-148.23;100.00;61223.13;4980414;28;20460;-68
2022/03/08 00:39:39;;;;;;;16.27;7.43;;;;;;;-148.23;100.00;61223.13;4978073;28;20299;-68
2022/03/08 00:42:05;;;;;;;18.85;8.30;;;;;;;-148.23;100.00;61223.13;4978256;28;20038;-68
2022/03/08 00:44:30;;;;;;;14.82;7.85;;;;;;;-148.23;100.00;61223.13;4979330;28;20091;-68
2022/03/08 00:46:56;;;;;;;17.63;7.68;;;;;;;-148.23;100.00;61223.13;4976992;28;20053;-68
2022/03/08 00:49:21;;;;;;;14.88;8.13;;;;;;;-148.23;100.00;61223.13;4981013;28;20796;-68
2022/03/08 00:51:46;;;;;;;18.15;7.70;;;;;;;-148.23;100.00;61223.13;4978404;28;20088;-68
2022/03/08 00:54:12;;;;;;;18.08;7.10;;;;;;;-148.23;100.00;61223.13;4979503;28;20468;-68
2022/03/08 00:56:37;;;;;;;19.42;8.05;;;;;;;-148.23;100.00;61223.13;4978204;28;20116;-68
2022/03/08 00:59:03;;;;;;;15.65;7.97;;;;;;;-148.23;100.00;61223.13;4978741;28;20038;-68
2022/03/08 01:01:28;;;;;;;18.10;7.60;;;;;;;-148.23;100.00;61223.13;4979085;28;20112;-68
2022/03/08 01:03:53;;;;;;;13.73;7.07;;;;;;;-148.23;100.00;61223.13;4980945;28;20125;-68
2022/03/08 01:06:19;;;;;;;16.20;7.80;;;;;;;-148.23;100.00;61223.13;4977539;28;20042;-68
2022/03/08 01:08:44;;;;;;;12.70;7.10;;;;;;;-148.23;100.00;61223.13;4977426;28;20033;-68
2022/03/08 01:11:09;;;;;;;19.80;7.82;;;;;;;-148.23;100.00;61223.13;4978772;28;20038;-68
2022/03/08 01:13:34;;;;;;;14.38;7.65;;;;;;;-148.23;100.00;61223.13;4979738;28;20034;-68
2022/03/08 01:16:00;;;;;;;16.23;7.22;;;;;;;-148.23;100.00;61223.13;4975287;28;20109;-68
2022/03/08 01:18:25;;;;;;;14.60;7.65;;;;;;;-148.23;100.00;61223.13;4975900;28;20303;-68
2022/03/08 01:20:51;;;;;;;19.58;8.02;;;;;;;-148.23;100.00;61223.13;4980091;28;20057;-68
2022/03/08 01:23:16;;;;;;;16.90;7.72;;;;;;;-148.23;100.00;61223.13;4979383;28;20180;-68
2022/03/08 01:25:41;;;;;;;16.10;7.50;;;;;;;-148.23;100.00;61223.13;4977399;28;20466;-68
2022/03/08 01:28:07;;;;;;;18.10;8.48;;;;;;;-148.23;100.00;61223.13;4978070;28;20427;-68
2022/03/08 01:30:33;;;;;;;17.67;8.30;;;;;;;-148.23;100.00;61223.13;4974367;28;20041;-68
2022/03/08 01:32:59;;;;;;;12.50;7.00;;;;;;;-148.23;100.00;61223.13;4978977;28;20076;-68
2022/03/08 01:35:25;;;;;;;16.05;7.75;;;;;;;-148.23;100.00;61223.13;4974840;28;20030;-68
2022/03/08 01:37:51;;;;;;;16.20;8.32;;;;;;;-148.23;100.00;61223.13;4980808;28;20507;-68
2022/03/08 01:40:17;;;;;;;16.55;8.05;;;;;;;-148.23;100.00;61223.13;4976099;28;20033;-68
2022/03/08 01:42:46;;;;;;;15.98;7.35;;;;;;;-148.23;100.00;61223.13;4979155;28;20026;-68
2022/03/08 01:45:12;;;;;;;14.82;7.43;;;;;;;-148.23;100.00;61223.13;4979095;28;20033;-68
2022/03/08 01:47:37;;;;;;;16.95;8.40;;;;;;;-148.23;100.00;61223.13;4980187;28;20041;-68
2022/03/08 01:50:04;;;;;;;19.75;7.25;;;;;;;-148.23;100.00;61223.13;4980034;28;20038;-68
2022/03/08 01:52:29;;;;;;;16.13;7.70;;;;;;;-148.23;100.00;61223.13;4975960;28;20037;-68
2022/03/08 01:54:54;;;;;;;18.05;8.38;;;;;;;-148.23;100.00;61223.13;4982738;28;20030;-68
2022/03/08 01:57:23;;;;;;;18.05;8.27;;;;;;;-148.23;100.00;61223.13;4980432;28;20034;-68
2022/03/08 01:59:49;;;;;;;15.38;8.18;;;;;;;-148.23;100.00;61223.13;4982909;28;20156;-68
2022/03/08 02:02:14;;;;;;;14.60;6.80;;;;;;;-148.23;100.00;61223.13;4980882;28;20476;-68
2022/03/08 02:04:40;;;;;;;12.35;7.68;;;;;;;-148.23;100.00;61223.13;4985379;28;20030;-68
2022/03/08 02:07:07;;;;;;;16.73;7.10;;;;;;;-148.23;100.00;61223.13;4984165;28;20034;-68
2022/03/08 02:09:32;;;;;;;15.98;6.95;;;;;;;-148.23;100.00;61223.13;4985048;28;20045;-68
2022/03/08 02:11:58;;;;;;;15.35;7.20;;;;;;;-148.23;100.00;61223.13;4980577;28;20030;-68
2022/03/08 02:14:23;;;;;;;15.30;7.03;;;;;;;-148.23;100.00;61223.13;4983571;28;20049;-68
2022/03/08 02:16:48;;;;;;;16.33;7.75;;;;;;;-148.23;100.00;61223.13;4982216;28;20034;-68
2022/03/08 02:19:15;;;;;;;17.35;7.35;;;;;;;-148.23;100.00;61223.13;4981935;28;20039;-68
2022/03/08 02:21:41;;;;;;;16.48;8.00;;;;;;;-148.23;100.00;61223.13;4983818;28;20056;-68
2022/03/08 02:24:06;;;;;;;17.60;8.77;;;;;;;-148.23;100.00;61223.13;4982168;28;20109;-68
2022/03/08 02:26:31;;;;;;;11.23;5.97;;;;;;;-148.23;100.00;61223.13;4981718;28;20058;-68
2022/03/08 02:28:58;;;;;;;18.02;7.55;;;;;;;-148.23;100.00;61223.13;4981741;28;20077;-68
2022/03/08 02:31:24;;;;;;;23.70;7.32;;;;;;;-148.23;100.00;61223.13;4983143;28;20093;-68
2022/03/08 02:33:49;;;;;;;11.00;6.35;;;;;;;-148.23;100.00;61223.13;4984022;28;20042;-68
2022/03/08 02:36:14;;;;;;;14.00;6.50;;;;;;;-148.23;100.00;61223.13;4983657;28;20065;-68
2022/03/08 02:38:40;;;;;;;13.60;6.97;;;;;;;-148.23;100.00;61223.13;4984924;28;20061;-68
2022/03/08 02:41:06;;;;;;;15.88;8.00;;;;;;;-148.23;100.00;61223.13;4982190;28;20177;-68
2022/03/08 02:43:31;;;;;;;14.93;7.15;;;;;;;-148.23;100.00;61223.13;4982684;28;20026;-68
2022/03/08 02:45:56;;;;;;;14.30;7.22;;;;;;;-148.23;100.00;61223.13;4981105;28;20034;-68
2022/03/08 02:48:25;;;;;;;14.27;7.32;;;;;;;-148.23;100.00;61223.13;4985032;28;20058;-68
2022/03/08 02:50:50;;;;;;;16.25;7.63;;;;;;;-148.23;100.00;61223.13;4982234;28;20081;-68
2022/03/08 02:53:15;;;;;;;15.95;7.30;;;;;;;-148.23;100.00;61223.13;4984677;28;20026;-68
2022/03/08 02:55:41;;;;;;;16.13;7.78;;;;;;;-148.23;100.00;61223.13;4982142;28;20461;-68
2022/03/08 02:58:06;;;;;;;16.17;7.38;;;;;;;-148.23;100.00;61223.13;4982250;28;20452;-68
2022/03/08 03:00:32;;;;;;;12.77;6.72;;;;;;;-148.23;100.00;61223.13;4983543;28;20515;-68
2022/03/08 03:02:58;;;;;;;16.65;8.15;;;;;;;-148.23;100.00;61223.13;4981235;28;20110;-68
2022/03/08 03:05:24;;;;;;;16.30;7.30;;;;;;;-148.23;100.00;61223.13;4984157;28;20545;-68
2022/03/08 03:07:49;;;;;;;15.45;7.07;;;;;;;-148.23;100.00;61223.13;4980650;28;20080;-68
2022/03/08 03:10:17;;;;;;;11.38;7.07;;;;;;;-148.23;100.00;61223.13;4983112;28;20061;-68
2022/03/08 03:12:43;;;;;;;15.48;7.35;;;;;;;-148.23;100.00;61223.13;4982899;28;20397;-68
2022/03/08 03:15:11;;;;;;;14.45;6.93;;;;;;;-148.23;100.00;61223.13;4964527;28;20378;-68
2022/03/08 03:17:37;;;;;;;18.95;8.18;;;;;;;-148.23;100.00;61223.13;4983271;28;20464;-68
2022/03/08 03:20:04;;;;;;;12.38;6.60;;;;;;;-148.23;100.00;61223.13;4982048;28;20037;-68
2022/03/08 03:22:29;;;;;;;13.48;6.97;;;;;;;-148.23;100.00;61223.13;4982791;28;20101;-68
2022/03/08 03:24:54;;;;;;;15.93;7.57;;;;;;;-148.23;100.00;61223.13;4963106;28;20429;-68
2022/03/08 03:27:20;;;;;;;13.55;6.60;;;;;;;-148.23;100.00;61223.13;4980820;28;20535;-68
2022/03/08 03:29:45;;;;;;;13.02;6.28;;;;;;;-148.23;100.00;61223.13;4980608;28;20030;-68
2022/03/08 03:32:10;;;;;;;9.93;6.40;;;;;;;-148.23;100.00;61223.13;4980864;28;20034;-68
2022/03/08 03:34:35;;;;;;;15.65;8.00;;;;;;;-148.23;100.00;61223.13;4981238;28;20069;-68
2022/03/08 03:37:01;;;;;;;13.82;6.57;;;;;;;-148.23;100.00;61223.13;4981119;28;20390;-68
2022/03/08 03:39:26;;;;;;;15.43;7.40;;;;;;;-148.23;100.00;61223.13;4984533;28;20026;-68
2022/03/08 03:41:51;;;;;;;13.32;7.00;;;;;;;-148.23;100.00;61223.13;4981055;28;20088;-68
2022/03/08 03:44:17;;;;;;;13.82;7.03;;;;;;;-148.23;100.00;61223.13;4979445;28;20622;-68
2022/03/08 03:46:42;;;;;;;14.07;6.60;;;;;;;-148.23;100.00;61223.13;4982934;28;20065;-68
2022/03/08 03:49:08;;;;;;;15.10;7.43;;;;;;;-148.23;100.00;61223.13;4980856;28;20152;-68
2022/03/08 03:51:33;;;;;;;16.52;7.40;;;;;;;-148.23;100.00;61223.13;4981612;28;20034;-68
2022/03/08 03:53:58;;;;;;;13.95;7.10;;;;;;;-148.23;100.00;61223.13;4981755;28;20034;-68
2022/03/08 03:56:24;;;;;;;15.13;7.35;;;;;;;-148.23;100.00;61223.13;4978559;28;20108;-69
2022/03/08 03:58:49;;;;;;;14.25;6.53;;;;;;;-148.23;100.00;61223.13;4982494;28;20153;-68
2022/03/08 04:01:15;;;;;;;13.73;7.78;;;;;;;-148.23;100.00;61223.13;4981980;28;20479;-68
2022/03/08 04:03:40;;;;;;;12.27;6.50;;;;;;;-148.23;100.00;61223.13;4982457;28;20040;-68
2022/03/08 04:06:07;;;;;;;16.58;7.80;;;;;;;-148.23;100.00;61223.13;4976850;28;20046;-68
2022/03/08 04:08:32;;;;;;;13.65;7.18;;;;;;;-148.23;100.00;61223.13;4981623;28;20030;-68
2022/03/08 04:10:58;;;;;;;14.00;7.00;;;;;;;-148.23;100.00;61223.13;4981808;28;20034;-68
2022/03/08 04:13:23;;;;;;;13.93;6.35;;;;;;;-148.23;100.00;61223.13;4980525;28;20060;-68
2022/03/08 04:15:48;;;;;;;12.80;6.88;;;;;;;-148.23;100.00;61223.13;4963727;28;20038;-68
2022/03/08 04:18:14;;;;;;;11.98;6.50;;;;;;;-148.23;100.00;61223.13;4978026;28;20030;-68
2022/03/08 04:20:40;;;;;;;10.55;6.63;;;;;;;-148.23;100.00;61223.13;4974309;28;20102;-68
2022/03/08 04:23:05;;;;;;;12.23;7.15;;;;;;;-148.23;100.00;61223.13;4962852;28;20033;-68
2022/03/08 04:25:31;;;;;;;14.50;7.97;;;;;;;-148.23;100.00;61223.13;4981812;28;20113;-68
2022/03/08 04:27:56;;;;;;;16.25;7.63;;;;;;;-148.23;100.00;61223.13;4978701;28;20061;-68
2022/03/08 04:30:22;;;;;;;13.68;6.53;;;;;;;-148.23;100.00;61223.13;4981177;28;20054;-68
2022/03/08 04:32:50;;;;;;;13.80;7.65;;;;;;;-148.23;100.00;61223.13;4978786;28;20535;-68
2022/03/08 04:35:15;;;;;;;14.20;6.82;;;;;;;-148.23;100.00;61223.13;4983061;28;20570;-71
2022/03/08 04:37:41;;;;;;;14.10;6.72;;;;;;;-148.23;100.00;61223.13;4980530;28;20041;-69
2022/03/08 04:40:07;;;;;;;12.98;7.70;;;;;;;-148.23;100.00;61223.13;4984398;28;20524;-68
2022/03/08 04:42:32;;;;;;;15.90;7.55;;;;;;;-148.23;100.00;61223.13;4980564;28;20026;-68
2022/03/08 04:44:57;;;;;;;16.65;7.32;;;;;;;-148.23;100.00;61223.13;4985637;28;20030;-68
2022/03/08 04:47:23;;;;;;;16.30;7.53;;;;;;;-148.23;100.00;61223.13;4967382;28;20378;-68
2022/03/08 04:49:48;;;;;;;13.63;7.63;;;;;;;-148.23;100.00;61223.13;4982137;28;20150;-68
2022/03/08 04:52:13;;;;;;;12.05;7.43;;;;;;;-148.23;100.00;61223.13;4979998;28;20049;-68
2022/03/08 04:54:39;;;;;;;13.48;7.22;;;;;;;-148.23;100.00;61223.13;4980881;28;20509;-68
2022/03/08 04:57:04;;;;;;;15.20;7.75;;;;;;;-148.23;100.00;61223.13;4985008;28;20033;-68
2022/03/08 04:59:30;;;;;;;17.33;7.35;;;;;;;-148.23;100.00;61223.13;4984068;28;20034;-68
2022/03/08 05:01:56;;;;;;;14.00;7.38;;;;;;;-148.23;100.00;61223.13;4981569;28;20042;-68
2022/03/08 05:04:22;;;;;;;15.73;6.50;;;;;;;-148.23;100.00;61223.13;4984593;28;20037;-69
2022/03/08 05:06:47;;;;;;;17.95;8.93;;;;;;;-148.23;100.00;61223.13;4979593;28;20034;-68
2022/03/08 05:09:13;;;;;;;13.95;7.22;;;;;;;-148.23;100.00;61223.13;4983455;28;20544;-70
2022/03/08 05:11:38;;;;;;;13.63;8.50;;;;;;;-148.23;100.00;61223.13;4981874;28;20046;-68
2022/03/08 05:14:03;;;;;;;12.35;7.07;;;;;;;-148.23;100.00;61223.13;4977106;28;20038;-68
2022/03/08 05:16:29;;;;;;;12.18;7.13;;;;;;;-148.23;100.00;61223.13;4979268;28;20030;-68
2022/03/08 05:18:54;;;;;;;13.73;7.28;;;;;;;-148.23;100.00;61223.13;4979909;28;20469;-67
2022/03/08 05:21:19;;;;;;;15.43;7.70;;;;;;;-148.23;100.00;61223.13;4982726;28;20038;-68
2022/03/08 05:23:45;;;;;;;13.60;7.30;;;;;;;-148.23;100.00;61223.13;4983014;28;20058;-68
2022/03/08 05:26:10;;;;;;;16.27;8.10;;;;;;;-148.23;100.00;61223.13;4985320;28;20077;-68
2022/03/08 05:28:35;;;;;;;17.00;7.90;;;;;;;-148.23;100.00;61223.13;4984690;28;20038;-68
2022/03/08 05:31:01;;;;;;;14.02;7.40;;;;;;;-148.23;100.00;61223.13;4980787;28;20046;-68
2022/03/08 05:33:26;;;;;;;15.07;8.77;;;;;;;-148.23;100.00;61223.13;4981893;28;20038;-68
2022/03/08 05:35:51;;;;;;;15.85;8.25;;;;;;;-148.23;100.00;61223.13;4977866;28;20037;-68
2022/03/08 05:38:17;;;;;;;13.63;7.95;;;;;;;-148.23;100.00;61223.13;4979169;28;20026;-68
2022/03/08 05:40:42;;;;;;;11.05;7.45;;;;;;;-148.23;100.00;61223.13;4983868;28;20556;-70
2022/03/08 05:43:08;;;;;;;10.50;6.72;;;;;;;-148.23;100.00;61223.13;4982683;28;20047;-68
2022/03/08 05:45:33;;;;;;;12.90;7.05;;;;;;;-148.23;100.00;61223.13;4981171;28;20096;-68
2022/03/08 05:47:59;;;;;;;15.10;7.80;;;;;;;-148.23;100.00;61223.13;4982243;28;20226;-68
2022/03/08 05:50:24;;;;;;;14.23;8.00;;;;;;;-148.23;100.00;61223.13;4983737;28;20528;-68
2022/03/08 05:52:49;;;;;;;17.20;7.00;;;;;;;-148.23;100.00;61223.13;4976509;28;20461;-68
2022/03/08 05:55:15;;;;;;;14.23;7.40;;;;;;;-148.23;100.00;61223.13;4982067;28;20042;-67
2022/03/08 05:57:40;;;;;;;17.20;7.38;;;;;;;-148.23;100.00;61223.13;4975349;28;20069;-68
2022/03/08 06:00:07;;;;;;;16.40;7.50;;;;;;;-148.23;100.00;61223.13;4963046;28;20520;-68
2022/03/08 06:02:32;;;;;;;17.13;8.13;;;;;;;-148.23;100.00;61223.13;4977195;28;20058;-68
2022/03/08 06:04:57;;;;;;;15.30;8.38;;;;;;;-148.23;100.00;61223.13;4965143;28;20583;-68
2022/03/08 06:07:23;;;;;;;16.20;7.38;;;;;;;-148.23;100.00;61223.13;4982214;28;20037;-68
2022/03/08 06:09:49;;;;;;;15.02;7.72;;;;;;;-148.23;100.00;61223.13;4981631;28;20034;-68
2022/03/08 06:12:14;;;;;;;13.93;7.55;;;;;;;-148.23;100.00;61223.13;4978055;28;20050;-68
2022/03/08 06:14:40;;;;;;;17.10;9.23;;;;;;;-148.23;100.00;61223.13;4962064;28;20046;-68
2022/03/08 06:17:09;;;;;;;12.48;7.78;;;;;;;-148.23;100.00;61223.13;4964790;28;20041;-68
2022/03/08 06:19:34;;;;;;;11.00;7.13;;;;;;;-148.23;100.00;61223.13;4979434;28;20562;-68
2022/03/08 06:22:00;;;;;;;12.93;7.22;;;;;;;-148.23;100.00;61223.13;4980995;28;20027;-68
2022/03/08 06:24:25;;;;;;;16.00;8.45;;;;;;;-148.23;100.00;61223.13;4965071;28;20092;-68
2022/03/08 06:26:50;;;;;;;13.32;7.85;;;;;;;-148.23;100.00;61223.13;4979322;28;20053;-68
2022/03/08 06:29:16;;;;;;;18.60;8.52;;;;;;;-148.23;100.00;61223.13;4979842;28;20068;-68
2022/03/08 06:31:41;;;;;;;17.70;7.82;;;;;;;-148.23;100.00;61223.13;4980397;28;20069;-68
2022/03/08 06:34:06;;;;;;;17.88;8.93;;;;;;;-148.23;100.00;61223.13;4980134;28;20113;-68
2022/03/08 06:36:32;;;;;;;14.82;7.00;;;;;;;-148.23;100.00;61223.13;4978604;28;20109;-68
2022/03/08 06:38:57;;;;;;;15.50;7.65;;;;;;;-148.23;100.00;61223.13;4978561;28;20039;-68
2022/03/08 06:41:24;;;;;;;13.85;7.97;;;;;;;-148.23;100.00;61223.13;4977057;28;20027;-69
2022/03/08 06:43:50;;;;;;;15.05;8.75;;;;;;;-148.23;100.00;61223.13;4981948;28;20034;-69
2022/03/08 06:46:15;;;;;;;14.43;8.43;;;;;;;-148.23;100.00;61223.13;4981906;28;20346;-69
2022/03/08 06:48:40;;;;;;;14.35;8.27;;;;;;;-148.23;100.00;61223.13;4967615;28;20041;-69
2022/03/08 06:51:06;;;;;;;13.20;7.68;;;;;;;-148.23;100.00;61223.13;4983502;28;20448;-69
2022/03/08 06:53:31;;;;;;;17.17;8.95;;;;;;;-148.23;100.00;61223.13;4980455;28;20035;-69
2022/03/08 06:55:57;;;;;;;18.25;8.20;;;;;;;-148.23;100.00;61223.13;4967533;28;20072;-69
2022/03/08 06:58:22;;;;;;;16.77;8.65;;;;;;;-148.23;100.00;61223.13;4980364;28;20448;-69
2022/03/08 07:00:47;;;;;;;17.48;9.68;;;;;;;-148.23;100.00;61223.13;4983087;28;20038;-69
2022/03/08 07:03:13;;;;;;;18.70;8.43;;;;;;;-148.23;100.00;61223.13;4980937;28;20041;-69
2022/03/08 07:05:38;;;;;;;18.02;7.55;;;;;;;-148.23;100.00;61223.13;4968924;28;20847;-69
2022/03/08 07:08:05;;;;;;;14.55;7.28;;;;;;;-148.23;100.00;61223.13;4979862;28;20045;-69
2022/03/08 07:10:30;;;;;;;15.55;9.10;;;;;;;-148.23;100.00;61223.13;4985424;28;20475;-70
2022/03/08 07:12:56;;;;;;;15.70;8.00;;;;;;;-148.23;100.00;61223.13;4966962;28;20026;-70
2022/03/08 07:15:21;;;;;;;16.88;10.02;;;;;;;-148.23;100.00;61223.13;4981896;28;20537;-70
2022/03/08 07:17:47;;;;;;;18.77;9.70;;;;;;;-148.23;100.00;61223.13;4978576;28;20026;-70
2022/03/08 07:20:13;;;;;;;12.35;7.03;;;;;;;-148.23;100.00;61223.13;4970054;28;20034;-69
2022/03/08 07:22:38;;;;;;;16.48;9.18;;;;;;;-148.23;100.00;61223.13;4963338;28;20239;-69
2022/03/08 07:25:05;;;;;;;16.05;7.85;;;;;;;-148.23;100.00;61223.13;4986297;28;20120;-69
2022/03/08 07:27:31;;;;;;;16.17;8.18;;;;;;;-148.23;100.00;61223.13;4982629;28;20152;-70
2022/03/08 07:29:56;;;;;;;11.82;7.35;;;;;;;-148.23;100.00;61223.13;4981836;28;20469;-70
2022/03/08 07:32:21;;;;;;;17.98;10.88;;;;;;;-148.23;100.00;61223.13;4983444;28;20030;-69
2022/03/08 07:34:46;;;;;;;13.90;7.78;;;;;;;-148.23;100.00;61223.13;4983256;28;20304;-70
2022/03/08 07:37:12;;;;;;;18.67;8.98;;;;;;;-148.23;100.00;61223.13;4980337;28;20060;-69
2022/03/08 07:39:37;;;;;;;16.42;8.95;;;;;;;-148.23;100.00;61223.13;4985600;28;20033;-69
2022/03/08 07:42:03;;;;;;;16.08;8.77;;;;;;;-148.23;100.00;61223.13;4986701;28;20137;-69
2022/03/08 07:44:28;;;;;;;17.00;9.75;;;;;;;-148.23;100.00;61223.13;4983808;28;20096;-70
2022/03/08 07:46:55;;;;;;;14.43;10.35;;;;;;;-148.23;100.00;61223.13;4981674;28;20038;-69
2022/03/08 07:49:20;;;;;;;19.98;9.13;;;;;;;-148.23;100.00;61223.13;4981160;28;20038;-69
2022/03/08 07:51:46;;;;;;;15.18;7.85;;;;;;;-148.23;100.00;61223.13;4987430;28;20040;-69
2022/03/08 07:54:12;;;;;;;16.88;9.48;;;;;;;-148.23;100.00;61223.13;4982164;28;20109;-70
2022/03/08 07:56:38;;;;;;;12.75;8.38;;;;;;;-148.23;100.00;61223.13;4985222;28;20533;-69
2022/03/08 07:59:03;;;;;;;19.58;11.68;;;;;;;-148.23;100.00;61223.13;4984151;28;20529;-69
2022/03/08 08:01:28;;;;;;;19.30;10.30;;;;;;;-148.23;100.00;61223.13;4978312;28;20039;-69
2022/03/08 08:03:54;;;;;;;16.15;11.05;;;;;;;-148.23;100.00;61223.13;4977229;28;20022;-70
2022/03/08 08:06:19;;;;;;;11.95;8.45;;;;;;;-148.23;100.00;61223.13;4981491;28;20030;-69
2022/03/08 08:08:45;;;;;;;16.38;10.98;;;;;;;-148.23;100.00;61223.13;4980439;28;20034;-70
2022/03/08 08:11:10;;;;;;;15.95;10.77;;;;;;;-148.23;100.00;61223.13;4981079;28;20034;-69
2022/03/08 08:13:35;;;;;;;15.50;9.75;;;;;;;-148.23;100.00;61223.13;4962062;28;20037;-69
2022/03/08 08:16:00;;;;;;;18.15;11.07;;;;;;;-148.23;100.00;61223.13;4978379;28;20096;-70
2022/03/08 08:18:26;;;;;;;20.05;11.85;;;;;;;-148.23;100.00;61223.13;4982365;28;20030;-72
2022/03/08 08:20:51;;;;;;;14.55;9.50;;;;;;;-148.23;100.00;61223.13;4974606;28;20038;-69
2022/03/08 08:23:16;;;;;;;17.90;9.57;;;;;;;-148.23;100.00;61223.13;4983235;28;20061;-69
2022/03/08 08:25:42;;;;;;;15.63;9.65;;;;;;;-148.23;100.00;61223.13;4984973;28;20089;-69
2022/03/08 08:28:07;;;;;;;14.80;9.18;;;;;;;-148.23;100.00;61223.13;4981004;28;20061;-70
2022/03/08 08:30:33;;;;;;;17.38;11.35;;;;;;;-148.23;100.00;61223.13;4974715;28;20030;-71
2022/03/08 08:32:59;;;;;;;19.50;10.50;;;;;;;-148.23;100.00;61223.13;4974828;28;20123;-68
2022/03/08 08:35:24;;;;;;;21.73;11.20;;;;;;;-148.23;100.00;61223.13;4981855;28;20030;-71
2022/03/08 08:37:49;;;;;;;17.80;11.77;;;;;;;-148.23;100.00;61223.13;4967007;28;20461;-70
2022/03/08 08:40:15;;;;;;;20.60;10.23;;;;;;;-148.23;100.00;61223.13;4966642;28;20038;-69
2022/03/08 08:42:40;;;;;;;15.18;11.40;;;;;;;-148.23;100.00;61223.13;4980993;28;20481;-72
2022/03/08 08:45:06;;;;;;;15.27;8.77;;;;;;;-148.23;100.00;61223.13;4981772;28;20121;-69
2022/03/08 08:47:32;;;;;;;14.00;8.50;;;;;;;-148.23;100.00;61223.13;4972773;28;20033;-69
2022/03/08 08:49:57;;;;;;;16.95;11.77;;;;;;;-148.23;100.00;61223.13;4979948;28;20117;-75
2022/03/08 08:52:22;;;;;;;14.00;8.93;;;;;;;-148.23;100.00;61223.13;4982388;28;20488;-71
2022/03/08 08:54:48;;;;;;;14.27;10.57;;;;;;;-148.23;100.00;61223.13;4978257;28;20058;-70
2022/03/08 08:57:14;;;;;;;9.02;6.43;;;;;;;-148.23;100.00;61223.13;4983794;28;20188;-71
2022/03/08 08:59:39;;;;;;;18.05;10.80;;;;;;;-148.23;100.00;61223.13;4977326;28;20030;-70
2022/03/08 09:02:04;;;;;;;13.65;9.60;;;;;;;-148.23;100.00;61223.13;4963483;28;20519;-71
2022/03/08 09:04:30;;;;;;;15.43;9.75;;;;;;;-148.23;100.00;61223.13;4980733;28;20057;-71
2022/03/08 09:06:55;;;;;;;13.02;8.43;;;;;;;-148.23;100.00;61223.13;4962663;28;20030;-70
2022/03/08 09:09:20;;;;;;;15.13;10.82;;;;;;;-148.23;100.00;61223.13;4980304;28;22911;-72
2022/03/08 09:11:46;;;;;;;12.77;10.25;;;;;;;-148.23;100.00;61223.13;4977320;28;20058;-73
2022/03/08 09:14:11;;;;;;;15.30;9.32;;;;;;;-148.23;100.00;61223.13;4962706;28;20349;-70
2022/03/08 09:16:37;;;;;;;14.32;10.23;;;;;;;-148.23;100.00;61223.13;4981207;28;20026;-71
2022/03/08 09:19:02;;;;;;;15.30;10.15;;;;;;;-148.23;100.00;61223.13;4982000;28;20477;-71
2022/03/08 09:21:27;;;;;;;14.73;11.30;;;;;;;-148.23;100.00;61223.13;4964102;28;20435;-70
2022/03/08 09:23:53;;;;;;;13.35;8.90;;;;;;;-148.23;100.00;61223.13;4966614;28;20489;-71
2022/03/08 09:26:18;;;;;;;17.05;7.93;;;;;;;-148.23;100.00;61223.13;4965691;28;20539;-71
2022/03/08 09:28:43;;;;;;;13.73;9.05;;;;;;;-148.23;100.00;61223.13;4980288;28;20138;-73
2022/03/08 09:31:09;;;;;;;15.43;11.13;;;;;;;-148.23;100.00;61223.13;4963786;28;20567;-70
2022/03/08 09:33:34;;;;;;;10.63;7.68;;;;;;;-148.23;100.00;61223.13;4981447;28;20876;-71
2022/03/08 09:35:59;;;;;;;14.27;10.68;;;;;;;-148.23;100.00;61223.13;4981983;28;20026;-72
2022/03/08 09:38:25;;;;;;;14.85;10.35;;;;;;;-148.23;100.00;61223.13;4978625;28;20077;-70
2022/03/08 09:40:51;;;;;;;13.43;11.18;;;;;;;-148.23;100.00;61223.13;4965204;28;20026;-72
2022/03/08 09:43:18;;;;;;;15.93;9.63;;;;;;;-148.23;100.00;61223.13;4994030;28;20027;-71
2022/03/08 09:45:43;;;;;;;34.92;10.55;;;;;;;-148.23;100.00;61223.13;4980821;28;20068;-71
2022/03/08 09:48:09;;;;;;;16.65;10.20;;;;;;;-148.23;100.00;61223.13;4963462;28;20129;-70
2022/03/08 09:50:35;;;;;;;15.23;9.70;;;;;;;-148.23;100.00;61223.13;4982101;28;20026;-70
2022/03/08 09:53:00;;;;;;;11.40;9.02;;;;;;;-148.23;100.00;61223.13;4977481;28;20041;-70
2022/03/08 09:55:26;;;;;;;9.68;7.10;;;;;;;-148.23;100.00;61223.13;4994550;28;20026;-70
2022/03/08 09:57:53;;;;;;;12.68;10.30;;;;;;;-148.23;100.00;61223.13;4983136;28;20026;-70
2022/03/08 10:00:19;;;;;;;17.13;10.60;;;;;;;-148.23;100.00;61223.13;4979173;28;20124;-70
2022/03/08 10:02:45;;;;;;;12.07;9.95;;;;;;;-148.23;100.00;61223.13;4978378;28;20034;-70
2022/03/08 10:05:11;;;;;;;13.43;9.80;;;;;;;-148.23;100.00;61223.13;4981175;28;20025;-71
2022/03/08 10:07:36;;;;;;;10.82;8.27;;;;;;;-148.23;100.00;61223.13;4972809;28;20034;-69
2022/03/08 10:10:02;;;;;;;15.00;8.40;;;;;;;-148.23;100.00;61223.13;4977920;28;20054;-69
2022/03/08 10:12:27;;;;;;;10.13;7.38;;;;;;;-148.23;100.00;61223.13;4976989;28;20041;-71
2022/03/08 10:14:53;;;;;;;10.73;8.32;;;;;;;-148.23;100.00;61223.13;4980249;28;20030;-69
2022/03/08 10:17:38;;;;;;;10.02;5.88;;;;;;;-148.23;100.00;61223.13;4979276;28;20109;-69
2022/03/08 10:20:09;;;;;;;10.70;7.90;;;;;;;-148.23;100.00;61223.13;4980030;28;20039;-69
2022/03/08 10:22:40;;;;;;;14.43;7.60;;;;;;;-148.23;100.00;61223.13;4983680;28;20034;-69
2022/03/08 10:25:10;;;;;;;11.15;7.20;;;;;;;-148.23;100.00;61223.13;4982322;28;20065;-71
2022/03/08 10:27:35;;;;;;;12.90;7.80;;;;;;;-148.23;100.00;61223.13;4985040;28;20121;-71
2022/03/08 10:30:01;;;;;;;12.30;7.93;;;;;;;-148.23;100.00;61223.13;4983598;28;20036;-71
2022/03/08 10:32:36;;;;;;;9.07;7.32;;;;;;;-148.23;100.00;61223.13;4984504;28;20029;-71
2022/03/08 10:35:01;;;;;;;9.38;7.97;;;;;;;-148.23;100.00;61223.13;4984888;28;20531;-69
2022/03/08 10:37:35;;;;;;;7.32;4.65;;;;;;;-148.23;100.00;61223.13;4969822;28;20026;-70
2022/03/08 10:40:02;;;;;;;12.93;6.97;;;;;;;-148.23;100.00;61223.13;4981492;28;20344;-71
2022/03/08 10:42:33;;;;;;;12.10;7.80;;;;;;;-148.23;100.00;61223.13;4982040;28;20065;-70
2022/03/08 10:45:07;;;;;;;8.35;6.07;;;;;;;-148.23;100.00;61223.13;4984489;28;20061;-70
2022/03/08 10:47:53;;;;;;;16.30;7.95;;;;;;;-148.23;100.00;61223.13;4978739;28;20476;-71
2022/03/08 10:50:23;;;;;;;9.88;6.75;;;;;;;-148.23;100.00;61223.13;4968345;28;20492;-71
2022/03/08 10:52:51;;;;;;;10.82;7.25;;;;;;;-148.23;100.00;61223.13;4978666;28;20038;-71
2022/03/08 10:55:24;;;;;;;10.95;7.55;;;;;;;-148.23;100.00;61223.13;4982678;28;20046;-72